sensor_id;sensor_type;location;lat;lon;timestamp;P1;durP1;ratioP1;P2;durP2;ratioP2
1306;SDS011;646;48.696;9.114;2022-09-21T00:02:14;2.40;;;2.20;;
1306;SDS011;646;48.696;9.114;2022-09-21T00:04:39;4.50;;;2.67;;
1306;SDS011;646;48.696;9.114;2022-09-21T00:07:04;3.80;;;2.50;;
1306;SDS011;646;48.696;9.114;2022-09-21T00:09:30;3.73;;;2.90;;
1306;SDS011;646;48.696;9.114;2022-09-21T00:11:55;4.40;;;2.80;;
1306;SDS011;646;48.696;9.114;2022-09-21T00:14:21;2.97;;;2.60;;
1306;SDS011;646;48.696;9.114;2022-09-21T00:16:47;3.60;;;3.30;;
1306;SDS011;646;48.696;9.114;2022-09-21T00:19:12;3.00;;;2.80;;
1306;SDS011;646;48.696;9.114;2022-09-21T00:21:39;4.45;;;3.55;;
1306;SDS011;646;48.696;9.114;2022-09-21T00:24:05;3.13;;;2.83;;
1306;SDS011;646;48.696;9.114;2022-09-21T00:26:31;3.45;;;2.78;;
1306;SDS011;646;48.696;9.114;2022-09-21T00:28:58;5.60;;;2.73;;
1306;SDS011;646;48.696;9.114;2022-09-21T00:31:25;5.45;;;2.53;;
1306;SDS011;646;48.696;9.114;2022-09-21T00:33:52;3.30;;;3.00;;
1306;SDS011;646;48.696;9.114;2022-09-21T00:36:20;2.70;;;2.50;;
1306;SDS011;646;48.696;9.114;2022-09-21T00:38:56;3.50;;;3.20;;
1306;SDS011;646;48.696;9.114;2022-09-21T00:41:25;2.35;;;2.15;;
1306;SDS011;646;48.696;9.114;2022-09-21T00:44:22;4.47;;;2.97;;
1306;SDS011;646;48.696;9.114;2022-09-21T00:46:54;5.65;;;2.35;;
1306;SDS011;646;48.696;9.114;2022-09-21T00:49:24;2.40;;;2.20;;
1306;SDS011;646;48.696;9.114;2022-09-21T00:51:52;2.53;;;2.33;;
1306;SDS011;646;48.696;9.114;2022-09-21T00:54:21;2.35;;;2.15;;
1306;SDS011;646;48.696;9.114;2022-09-21T00:56:53;2.65;;;2.42;;
1306;SDS011;646;48.696;9.114;2022-09-21T00:59:20;2.38;;;2.10;;
1306;SDS011;646;48.696;9.114;2022-09-21T01:01:46;2.42;;;2.22;;
1306;SDS011;646;48.696;9.114;2022-09-21T01:04:12;2.47;;;2.27;;
1306;SDS011;646;48.696;9.114;2022-09-21T01:06:40;2.80;;;2.50;;
1306;SDS011;646;48.696;9.114;2022-09-21T01:09:06;2.37;;;2.20;;
1306;SDS011;646;48.696;9.114;2022-09-21T01:11:36;4.25;;;2.78;;
1306;SDS011;646;48.696;9.114;2022-09-21T01:14:18;3.22;;;2.50;;
1306;SDS011;646;48.696;9.114;2022-09-21T01:25:18;2.92;;;2.53;;
1306;SDS011;646;48.696;9.114;2022-09-21T01:30:27;3.03;;;2.30;;
1306;SDS011;646;48.696;9.114;2022-09-21T01:32:55;3.20;;;3.00;;
1306;SDS011;646;48.696;9.114;2022-09-21T01:35:53;3.13;;;2.83;;
1306;SDS011;646;48.696;9.114;2022-09-21T01:38:26;5.50;;;2.55;;
1306;SDS011;646;48.696;9.114;2022-09-21T01:41:02;3.13;;;2.92;;
1306;SDS011;646;48.696;9.114;2022-09-21T01:43:35;3.50;;;3.20;;
1306;SDS011;646;48.696;9.114;2022-09-21T01:46:05;5.55;;;3.10;;
1306;SDS011;646;48.696;9.114;2022-09-21T01:48:35;3.30;;;3.00;;
1306;SDS011;646;48.696;9.114;2022-09-21T01:51:05;4.45;;;2.60;;
1306;SDS011;646;48.696;9.114;2022-09-21T01:53:35;2.40;;;2.20;;
1306;SDS011;646;48.696;9.114;2022-09-21T01:56:05;2.40;;;2.15;;
1306;SDS011;646;48.696;9.114;2022-09-21T02:01:34;2.42;;;2.22;;
1306;SDS011;646;48.696;9.114;2022-09-21T02:04:09;3.97;;;2.55;;
1306;SDS011;646;48.696;9.114;2022-09-21T02:06:36;3.17;;;2.67;;
1306;SDS011;646;48.696;9.114;2022-09-21T02:09:04;2.97;;;2.70;;
1306;SDS011;646;48.696;9.114;2022-09-21T02:11:31;3.55;;;2.88;;
1306;SDS011;646;48.696;9.114;2022-09-21T02:13:56;3.23;;;2.50;;
1306;SDS011;646;48.696;9.114;2022-09-21T02:16:32;2.97;;;2.77;;
1306;SDS011;646;48.696;9.114;2022-09-21T02:21:55;2.92;;;2.60;;
1306;SDS011;646;48.696;9.114;2022-09-21T02:24:39;2.70;;;2.50;;
1306;SDS011;646;48.696;9.114;2022-09-21T02:27:28;3.03;;;2.30;;
1306;SDS011;646;48.696;9.114;2022-09-21T02:30:15;2.70;;;2.50;;
1306;SDS011;646;48.696;9.114;2022-09-21T02:35:50;3.78;;;2.92;;
1306;SDS011;646;48.696;9.114;2022-09-21T02:38:35;3.53;;;2.72;;
1306;SDS011;646;48.696;9.114;2022-09-21T02:41:15;3.10;;;2.40;;
1306;SDS011;646;48.696;9.114;2022-09-21T02:43:58;1.92;;;1.80;;
1306;SDS011;646;48.696;9.114;2022-09-21T02:46:32;4.63;;;2.78;;
1306;SDS011;646;48.696;9.114;2022-09-21T02:49:06;2.63;;;2.42;;
1306;SDS011;646;48.696;9.114;2022-09-21T02:51:39;2.60;;;2.40;;
1306;SDS011;646;48.696;9.114;2022-09-21T02:54:11;3.75;;;3.00;;
1306;SDS011;646;48.696;9.114;2022-09-21T02:56:40;2.67;;;2.47;;
1306;SDS011;646;48.696;9.114;2022-09-21T02:59:07;6.70;;;2.63;;
1306;SDS011;646;48.696;9.114;2022-09-21T03:01:34;3.50;;;3.10;;
1306;SDS011;646;48.696;9.114;2022-09-21T03:04:00;3.63;;;2.60;;
1306;SDS011;646;48.696;9.114;2022-09-21T03:06:26;2.65;;;2.38;;
1306;SDS011;646;48.696;9.114;2022-09-21T03:08:52;5.63;;;2.70;;
1306;SDS011;646;48.696;9.114;2022-09-21T03:11:18;2.60;;;2.40;;
1306;SDS011;646;48.696;9.114;2022-09-21T03:13:44;2.47;;;2.28;;
1306;SDS011;646;48.696;9.114;2022-09-21T03:16:11;3.63;;;3.15;;
1306;SDS011;646;48.696;9.114;2022-09-21T03:18:37;3.22;;;2.63;;
1306;SDS011;646;48.696;9.114;2022-09-21T03:21:04;2.47;;;2.28;;
1306;SDS011;646;48.696;9.114;2022-09-21T03:23:29;4.00;;;2.80;;
1306;SDS011;646;48.696;9.114;2022-09-21T03:25:55;3.43;;;2.90;;
1306;SDS011;646;48.696;9.114;2022-09-21T03:28:20;2.93;;;2.67;;
1306;SDS011;646;48.696;9.114;2022-09-21T03:30:50;3.30;;;3.00;;
1306;SDS011;646;48.696;9.114;2022-09-21T03:33:16;4.35;;;3.10;;
1306;SDS011;646;48.696;9.114;2022-09-21T03:35:43;3.78;;;3.40;;
1306;SDS011;646;48.696;9.114;2022-09-21T03:38:09;3.78;;;3.35;;
1306;SDS011;646;48.696;9.114;2022-09-21T03:40:35;3.28;;;2.97;;
1306;SDS011;646;48.696;9.114;2022-09-21T03:43:01;7.47;;;2.87;;
1306;SDS011;646;48.696;9.114;2022-09-21T03:45:27;3.65;;;3.22;;
1306;SDS011;646;48.696;9.114;2022-09-21T03:47:56;3.10;;;2.70;;
1306;SDS011;646;48.696;9.114;2022-09-21T03:50:23;3.67;;;2.22;;
1306;SDS011;646;48.696;9.114;2022-09-21T03:52:50;2.47;;;2.28;;
1306;SDS011;646;48.696;9.114;2022-09-21T03:55:16;2.60;;;2.40;;
1306;SDS011;646;48.696;9.114;2022-09-21T03:57:42;3.13;;;2.50;;
1306;SDS011;646;48.696;9.114;2022-09-21T04:00:08;2.70;;;2.50;;
1306;SDS011;646;48.696;9.114;2022-09-21T04:02:35;2.35;;;2.25;;
1306;SDS011;646;48.696;9.114;2022-09-21T04:05:01;2.50;;;2.30;;
1306;SDS011;646;48.696;9.114;2022-09-21T04:07:30;3.30;;;2.77;;
1306;SDS011;646;48.696;9.114;2022-09-21T04:10:02;4.30;;;2.85;;
1306;SDS011;646;48.696;9.114;2022-09-21T04:12:33;3.78;;;3.35;;
1306;SDS011;646;48.696;9.114;2022-09-21T04:15:00;2.80;;;2.60;;
1306;SDS011;646;48.696;9.114;2022-09-21T04:17:26;4.40;;;2.97;;
1306;SDS011;646;48.696;9.114;2022-09-21T04:19:52;2.63;;;2.42;;
1306;SDS011;646;48.696;9.114;2022-09-21T04:22:17;3.43;;;3.13;;
1306;SDS011;646;48.696;9.114;2022-09-21T04:24:43;2.80;;;2.47;;
1306;SDS011;646;48.696;9.114;2022-09-21T04:27:09;4.70;;;2.40;;
1306;SDS011;646;48.696;9.114;2022-09-21T04:29:35;3.05;;;2.85;;
1306;SDS011;646;48.696;9.114;2022-09-21T04:32:01;2.70;;;2.50;;
1306;SDS011;646;48.696;9.114;2022-09-21T04:34:27;4.63;;;2.57;;
1306;SDS011;646;48.696;9.114;2022-09-21T04:36:53;6.20;;;2.80;;
1306;SDS011;646;48.696;9.114;2022-09-21T04:39:18;2.87;;;2.60;;
1306;SDS011;646;48.696;9.114;2022-09-21T04:41:44;4.10;;;3.20;;
1306;SDS011;646;48.696;9.114;2022-09-21T04:44:09;3.03;;;2.73;;
1306;SDS011;646;48.696;9.114;2022-09-21T04:46:35;2.60;;;2.40;;
1306;SDS011;646;48.696;9.114;2022-09-21T04:49:01;2.93;;;2.73;;
1306;SDS011;646;48.696;9.114;2022-09-21T04:51:26;5.87;;;3.03;;
1306;SDS011;646;48.696;9.114;2022-09-21T04:53:52;2.60;;;2.33;;
1306;SDS011;646;48.696;9.114;2022-09-21T04:56:17;4.07;;;3.03;;
1306;SDS011;646;48.696;9.114;2022-09-21T04:58:43;3.80;;;3.00;;
1306;SDS011;646;48.696;9.114;2022-09-21T05:01:09;3.70;;;3.27;;
1306;SDS011;646;48.696;9.114;2022-09-21T05:03:35;3.75;;;3.38;;
1306;SDS011;646;48.696;9.114;2022-09-21T05:06:01;4.60;;;3.80;;
1306;SDS011;646;48.696;9.114;2022-09-21T05:08:26;4.17;;;3.63;;
1306;SDS011;646;48.696;9.114;2022-09-21T05:11:44;4.30;;;3.60;;
1306;SDS011;646;48.696;9.114;2022-09-21T05:14:03;4.20;;;3.63;;
1306;SDS011;646;48.696;9.114;2022-09-21T05:16:29;5.00;;;4.00;;
1306;SDS011;646;48.696;9.114;2022-09-21T05:18:54;4.50;;;4.10;;
1306;SDS011;646;48.696;9.114;2022-09-21T05:21:20;4.00;;;3.60;;
1306;SDS011;646;48.696;9.114;2022-09-21T05:23:45;3.87;;;3.43;;
1306;SDS011;646;48.696;9.114;2022-09-21T05:26:11;4.10;;;3.60;;
1306;SDS011;646;48.696;9.114;2022-09-21T05:28:36;5.53;;;4.23;;
1306;SDS011;646;48.696;9.114;2022-09-21T05:31:11;3.93;;;3.50;;
1306;SDS011;646;48.696;9.114;2022-09-21T05:33:50;5.20;;;4.40;;
1306;SDS011;646;48.696;9.114;2022-09-21T05:39:00;7.05;;;5.63;;
1306;SDS011;646;48.696;9.114;2022-09-21T05:41:26;6.20;;;5.60;;
1306;SDS011;646;48.696;9.114;2022-09-21T05:43:52;6.47;;;5.87;;
1306;SDS011;646;48.696;9.114;2022-09-21T05:46:19;6.50;;;5.90;;
1306;SDS011;646;48.696;9.114;2022-09-21T05:48:59;6.13;;;5.53;;
1306;SDS011;646;48.696;9.114;2022-09-21T05:51:32;6.18;;;5.57;;
1306;SDS011;646;48.696;9.114;2022-09-21T05:54:20;6.35;;;5.85;;
1306;SDS011;646;48.696;9.114;2022-09-21T06:05:15;7.00;;;6.32;;
1306;SDS011;646;48.696;9.114;2022-09-21T06:07:41;6.82;;;6.18;;
1306;SDS011;646;48.696;9.114;2022-09-21T06:10:07;7.47;;;6.73;;
1306;SDS011;646;48.696;9.114;2022-09-21T06:12:36;7.85;;;7.25;;
1306;SDS011;646;48.696;9.114;2022-09-21T06:15:02;7.70;;;5.97;;
1306;SDS011;646;48.696;9.114;2022-09-21T06:17:49;6.53;;;5.30;;
1306;SDS011;646;48.696;9.114;2022-09-21T06:23:42;10.30;;;7.70;;
1306;SDS011;646;48.696;9.114;2022-09-21T06:26:08;9.13;;;7.77;;
1306;SDS011;646;48.696;9.114;2022-09-21T06:28:55;8.68;;;7.15;;
1306;SDS011;646;48.696;9.114;2022-09-21T06:31:41;7.28;;;6.55;;
1306;SDS011;646;48.696;9.114;2022-09-21T06:34:06;8.13;;;7.33;;
1306;SDS011;646;48.696;9.114;2022-09-21T06:36:38;8.38;;;7.57;;
1306;SDS011;646;48.696;9.114;2022-09-21T06:39:07;12.02;;;10.57;;
1306;SDS011;646;48.696;9.114;2022-09-21T06:41:34;13.90;;;12.30;;
1306;SDS011;646;48.696;9.114;2022-09-21T06:44:02;12.45;;;11.15;;
1306;SDS011;646;48.696;9.114;2022-09-21T06:46:28;12.83;;;11.47;;
1306;SDS011;646;48.696;9.114;2022-09-21T06:48:53;11.60;;;10.50;;
1306;SDS011;646;48.696;9.114;2022-09-21T06:51:19;10.60;;;9.60;;
1306;SDS011;646;48.696;9.114;2022-09-21T06:53:54;10.45;;;8.63;;
1306;SDS011;646;48.696;9.114;2022-09-21T06:56:21;8.82;;;7.85;;
1306;SDS011;646;48.696;9.114;2022-09-21T06:58:47;9.20;;;8.23;;
1306;SDS011;646;48.696;9.114;2022-09-21T07:01:13;8.73;;;7.83;;
1306;SDS011;646;48.696;9.114;2022-09-21T07:03:39;11.35;;;9.57;;
1306;SDS011;646;48.696;9.114;2022-09-21T07:06:06;12.75;;;11.10;;
1306;SDS011;646;48.696;9.114;2022-09-21T07:08:32;15.05;;;12.25;;
1306;SDS011;646;48.696;9.114;2022-09-21T07:10:59;12.48;;;11.20;;
1306;SDS011;646;48.696;9.114;2022-09-21T07:13:26;18.15;;;13.57;;
1306;SDS011;646;48.696;9.114;2022-09-21T07:15:53;20.60;;;13.30;;
1306;SDS011;646;48.696;9.114;2022-09-21T07:18:19;15.63;;;12.18;;
1306;SDS011;646;48.696;9.114;2022-09-21T07:20:45;16.25;;;12.68;;
1306;SDS011;646;48.696;9.114;2022-09-21T07:23:13;15.32;;;12.35;;
1306;SDS011;646;48.696;9.114;2022-09-21T07:25:41;14.48;;;11.98;;
1306;SDS011;646;48.696;9.114;2022-09-21T07:28:08;15.05;;;12.23;;
1306;SDS011;646;48.696;9.114;2022-09-21T07:30:34;18.42;;;13.02;;
1306;SDS011;646;48.696;9.114;2022-09-21T07:33:01;17.13;;;12.38;;
1306;SDS011;646;48.696;9.114;2022-09-21T07:35:26;13.53;;;11.80;;
1306;SDS011;646;48.696;9.114;2022-09-21T07:37:52;12.80;;;10.20;;
1306;SDS011;646;48.696;9.114;2022-09-21T07:40:20;14.02;;;9.20;;
1306;SDS011;646;48.696;9.114;2022-09-21T07:42:45;13.93;;;10.33;;
1306;SDS011;646;48.696;9.114;2022-09-21T07:45:11;10.20;;;8.97;;
1306;SDS011;646;48.696;9.114;2022-09-21T07:47:37;9.00;;;8.10;;
1306;SDS011;646;48.696;9.114;2022-09-21T07:50:02;13.47;;;8.40;;
1306;SDS011;646;48.696;9.114;2022-09-21T07:52:28;9.37;;;7.57;;
1306;SDS011;646;48.696;9.114;2022-09-21T07:54:53;11.40;;;7.70;;
1306;SDS011;646;48.696;9.114;2022-09-21T07:57:19;9.23;;;8.17;;
1306;SDS011;646;48.696;9.114;2022-09-21T08:00:03;8.77;;;7.88;;
1306;SDS011;646;48.696;9.114;2022-09-21T08:02:29;8.70;;;7.43;;
1306;SDS011;646;48.696;9.114;2022-09-21T08:04:54;6.73;;;6.13;;
1306;SDS011;646;48.696;9.114;2022-09-21T08:07:20;9.87;;;6.43;;
1306;SDS011;646;48.696;9.114;2022-09-21T08:09:45;6.07;;;5.50;;
1306;SDS011;646;48.696;9.114;2022-09-21T08:12:13;5.90;;;5.00;;
1306;SDS011;646;48.696;9.114;2022-09-21T08:14:42;5.97;;;5.47;;
1306;SDS011;646;48.696;9.114;2022-09-21T08:17:08;9.00;;;5.43;;
1306;SDS011;646;48.696;9.114;2022-09-21T08:19:34;6.83;;;5.37;;
1306;SDS011;646;48.696;9.114;2022-09-21T08:22:00;5.75;;;5.25;;
1306;SDS011;646;48.696;9.114;2022-09-21T08:24:26;5.43;;;4.93;;
1306;SDS011;646;48.696;9.114;2022-09-21T08:26:51;5.50;;;4.43;;
1306;SDS011;646;48.696;9.114;2022-09-21T08:29:17;4.20;;;3.80;;
1306;SDS011;646;48.696;9.114;2022-09-21T08:31:42;5.10;;;4.67;;
1306;SDS011;646;48.696;9.114;2022-09-21T08:34:08;4.90;;;4.50;;
1306;SDS011;646;48.696;9.114;2022-09-21T08:36:33;4.50;;;3.80;;
1306;SDS011;646;48.696;9.114;2022-09-21T08:38:59;4.60;;;4.20;;
1306;SDS011;646;48.696;9.114;2022-09-21T08:44:17;4.10;;;3.72;;
1306;SDS011;646;48.696;9.114;2022-09-21T08:46:47;4.97;;;4.20;;
1306;SDS011;646;48.696;9.114;2022-09-21T08:49:21;4.83;;;3.47;;
1306;SDS011;646;48.696;9.114;2022-09-21T08:51:55;3.87;;;3.47;;
1306;SDS011;646;48.696;9.114;2022-09-21T08:54:28;5.40;;;3.23;;
1306;SDS011;646;48.696;9.114;2022-09-21T08:57:11;2.87;;;2.40;;
1306;SDS011;646;48.696;9.114;2022-09-21T08:59:40;2.40;;;2.20;;
1306;SDS011;646;48.696;9.114;2022-09-21T09:05:20;4.70;;;2.70;;
1306;SDS011;646;48.696;9.114;2022-09-21T09:08:02;2.87;;;2.50;;
1306;SDS011;646;48.696;9.114;2022-09-21T09:10:54;1.70;;;1.60;;
1306;SDS011;646;48.696;9.114;2022-09-21T09:16:33;2.30;;;2.10;;
1306;SDS011;646;48.696;9.114;2022-09-21T09:19:17;2.33;;;1.90;;
1306;SDS011;646;48.696;9.114;2022-09-21T09:21:43;1.70;;;1.50;;
1306;SDS011;646;48.696;9.114;2022-09-21T09:24:18;2.63;;;1.87;;
1306;SDS011;646;48.696;9.114;2022-09-21T09:26:52;3.47;;;2.03;;
1306;SDS011;646;48.696;9.114;2022-09-21T09:29:30;2.10;;;2.00;;
1306;SDS011;646;48.696;9.114;2022-09-21T09:31:57;2.00;;;1.80;;
1306;SDS011;646;48.696;9.114;2022-09-21T09:34:31;1.97;;;1.47;;
1306;SDS011;646;48.696;9.114;2022-09-21T09:37:04;1.47;;;1.37;;
1306;SDS011;646;48.696;9.114;2022-09-21T09:39:38;2.00;;;1.30;;
1306;SDS011;646;48.696;9.114;2022-09-21T09:45:04;1.47;;;1.37;;
1306;SDS011;646;48.696;9.114;2022-09-21T09:50:33;1.87;;;1.50;;
1306;SDS011;646;48.696;9.114;2022-09-21T09:53:13;1.93;;;1.40;;
1306;SDS011;646;48.696;9.114;2022-09-21T09:55:46;1.30;;;1.10;;
1306;SDS011;646;48.696;9.114;2022-09-21T09:58:21;1.50;;;1.10;;
1306;SDS011;646;48.696;9.114;2022-09-21T10:00:52;1.33;;;1.23;;
1306;SDS011;646;48.696;9.114;2022-09-21T10:03:20;1.57;;;1.07;;
1306;SDS011;646;48.696;9.114;2022-09-21T10:05:47;1.27;;;1.17;;
1306;SDS011;646;48.696;9.114;2022-09-21T10:10:58;3.33;;;1.53;;
1306;SDS011;646;48.696;9.114;2022-09-21T10:15:55;1.53;;;1.30;;
1306;SDS011;646;48.696;9.114;2022-09-21T10:18:24;1.60;;;1.50;;
1306;SDS011;646;48.696;9.114;2022-09-21T10:21:00;2.60;;;1.30;;
1306;SDS011;646;48.696;9.114;2022-09-21T10:23:29;1.40;;;1.40;;
1306;SDS011;646;48.696;9.114;2022-09-21T10:26:00;1.50;;;1.37;;
1306;SDS011;646;48.696;9.114;2022-09-21T10:28:29;1.67;;;1.33;;
1306;SDS011;646;48.696;9.114;2022-09-21T10:33:40;1.43;;;1.33;;
1306;SDS011;646;48.696;9.114;2022-09-21T10:36:28;1.63;;;1.57;;
1306;SDS011;646;48.696;9.114;2022-09-21T10:39:11;2.33;;;1.83;;
1306;SDS011;646;48.696;9.114;2022-09-21T10:41:47;1.50;;;1.40;;
1306;SDS011;646;48.696;9.114;2022-09-21T10:44:38;3.17;;;1.80;;
1306;SDS011;646;48.696;9.114;2022-09-21T10:47:19;1.37;;;1.37;;
1306;SDS011;646;48.696;9.114;2022-09-21T10:49:52;2.20;;;1.60;;
1306;SDS011;646;48.696;9.114;2022-09-21T10:52:20;1.17;;;1.07;;
1306;SDS011;646;48.696;9.114;2022-09-21T10:54:49;2.40;;;1.30;;
1306;SDS011;646;48.696;9.114;2022-09-21T10:57:21;1.20;;;1.20;;
1306;SDS011;646;48.696;9.114;2022-09-21T10:59:48;1.40;;;1.30;;
1306;SDS011;646;48.696;9.114;2022-09-21T11:04:59;2.50;;;1.90;;
1306;SDS011;646;48.696;9.114;2022-09-21T11:07:37;1.80;;;1.63;;
1306;SDS011;646;48.696;9.114;2022-09-21T11:13:15;2.37;;;2.17;;
1306;SDS011;646;48.696;9.114;2022-09-21T11:16:03;1.90;;;1.80;;
1306;SDS011;646;48.696;9.114;2022-09-21T11:18:42;1.43;;;1.33;;
1306;SDS011;646;48.696;9.114;2022-09-21T11:26:43;1.60;;;1.50;;
1306;SDS011;646;48.696;9.114;2022-09-21T11:44:18;1.60;;;1.27;;
1306;SDS011;646;48.696;9.114;2022-09-21T11:46:57;1.47;;;1.33;;
1306;SDS011;646;48.696;9.114;2022-09-21T11:49:55;2.73;;;1.53;;
1306;SDS011;646;48.696;9.114;2022-09-21T11:55:11;1.30;;;1.20;;
1306;SDS011;646;48.696;9.114;2022-09-21T12:03:49;1.27;;;1.00;;
1306;SDS011;646;48.696;9.114;2022-09-21T12:12:18;1.30;;;1.20;;
1306;SDS011;646;48.696;9.114;2022-09-21T12:14:54;1.40;;;1.30;;
1306;SDS011;646;48.696;9.114;2022-09-21T12:23:00;1.83;;;1.20;;
1306;SDS011;646;48.696;9.114;2022-09-21T12:25:36;1.03;;;0.93;;
1306;SDS011;646;48.696;9.114;2022-09-21T12:28:16;2.23;;;2.03;;
1306;SDS011;646;48.696;9.114;2022-09-21T12:31:07;1.47;;;1.20;;
1306;SDS011;646;48.696;9.114;2022-09-21T12:34:28;1.67;;;1.20;;
1306;SDS011;646;48.696;9.114;2022-09-21T12:37:12;1.67;;;1.10;;
1306;SDS011;646;48.696;9.114;2022-09-21T12:40:05;2.30;;;1.20;;
1306;SDS011;646;48.696;9.114;2022-09-21T12:42:39;1.17;;;1.07;;
1306;SDS011;646;48.696;9.114;2022-09-21T12:45:21;1.30;;;1.30;;
1306;SDS011;646;48.696;9.114;2022-09-21T12:47:55;1.43;;;1.10;;
1306;SDS011;646;48.696;9.114;2022-09-21T12:50:37;2.20;;;1.07;;
1306;SDS011;646;48.696;9.114;2022-09-21T12:53:13;1.20;;;1.20;;
1306;SDS011;646;48.696;9.114;2022-09-21T12:55:53;1.20;;;1.10;;
1306;SDS011;646;48.696;9.114;2022-09-21T12:58:46;1.33;;;1.20;;
1306;SDS011;646;48.696;9.114;2022-09-21T13:01:36;1.43;;;1.37;;
1306;SDS011;646;48.696;9.114;2022-09-21T13:04:24;1.30;;;0.93;;
1306;SDS011;646;48.696;9.114;2022-09-21T13:07:17;1.20;;;1.10;;
1306;SDS011;646;48.696;9.114;2022-09-21T13:10:12;2.10;;;0.97;;
1306;SDS011;646;48.696;9.114;2022-09-21T13:13:03;1.47;;;1.10;;
1306;SDS011;646;48.696;9.114;2022-09-21T13:15:40;1.27;;;1.17;;
1306;SDS011;646;48.696;9.114;2022-09-21T13:18:15;1.10;;;1.10;;
1306;SDS011;646;48.696;9.114;2022-09-21T13:20:50;0.90;;;0.90;;
1306;SDS011;646;48.696;9.114;2022-09-21T13:23:22;1.27;;;0.90;;
1306;SDS011;646;48.696;9.114;2022-09-21T13:26:26;0.97;;;0.90;;
1306;SDS011;646;48.696;9.114;2022-09-21T13:31:39;1.13;;;1.13;;
1306;SDS011;646;48.696;9.114;2022-09-21T13:37:13;0.90;;;0.90;;
1306;SDS011;646;48.696;9.114;2022-09-21T13:47:29;1.07;;;1.07;;
1306;SDS011;646;48.696;9.114;2022-09-21T13:49:56;0.97;;;0.97;;
1306;SDS011;646;48.696;9.114;2022-09-21T13:55:04;1.07;;;0.97;;
1306;SDS011;646;48.696;9.114;2022-09-21T13:57:48;0.80;;;0.80;;
1306;SDS011;646;48.696;9.114;2022-09-21T14:02:42;1.10;;;1.10;;
1306;SDS011;646;48.696;9.114;2022-09-21T14:10:38;1.00;;;1.00;;
1306;SDS011;646;48.696;9.114;2022-09-21T14:13:22;1.00;;;1.00;;
1306;SDS011;646;48.696;9.114;2022-09-21T14:16:22;1.27;;;1.17;;
1306;SDS011;646;48.696;9.114;2022-09-21T14:18:58;3.20;;;0.93;;
1306;SDS011;646;48.696;9.114;2022-09-21T14:21:25;1.13;;;1.03;;
1306;SDS011;646;48.696;9.114;2022-09-21T14:24:07;1.50;;;1.10;;
1306;SDS011;646;48.696;9.114;2022-09-21T14:29:12;1.23;;;1.13;;
1306;SDS011;646;48.696;9.114;2022-09-21T14:31:57;1.20;;;1.10;;
1306;SDS011;646;48.696;9.114;2022-09-21T14:34:26;1.17;;;1.00;;
1306;SDS011;646;48.696;9.114;2022-09-21T14:36:57;1.33;;;1.10;;
1306;SDS011;646;48.696;9.114;2022-09-21T14:39:28;1.17;;;1.17;;
1306;SDS011;646;48.696;9.114;2022-09-21T14:42:00;1.50;;;1.27;;
1306;SDS011;646;48.696;9.114;2022-09-21T14:44:37;2.33;;;1.40;;
1306;SDS011;646;48.696;9.114;2022-09-21T14:47:12;1.00;;;1.00;;
1306;SDS011;646;48.696;9.114;2022-09-21T14:52:35;1.43;;;1.27;;
1306;SDS011;646;48.696;9.114;2022-09-21T14:55:40;4.63;;;1.50;;
1306;SDS011;646;48.696;9.114;2022-09-21T14:58:41;1.37;;;1.33;;
1306;SDS011;646;48.696;9.114;2022-09-21T15:01:34;1.33;;;1.33;;
1306;SDS011;646;48.696;9.114;2022-09-21T15:04:17;1.17;;;1.17;;
1306;SDS011;646;48.696;9.114;2022-09-21T15:06:56;1.43;;;1.33;;
1306;SDS011;646;48.696;9.114;2022-09-21T15:13:18;1.40;;;1.30;;
1306;SDS011;646;48.696;9.114;2022-09-21T15:18:41;1.20;;;1.10;;
1306;SDS011;646;48.696;9.114;2022-09-21T15:21:30;1.70;;;1.60;;
1306;SDS011;646;48.696;9.114;2022-09-21T15:24:09;1.30;;;1.20;;
1306;SDS011;646;48.696;9.114;2022-09-21T15:27:07;2.00;;;1.30;;
1306;SDS011;646;48.696;9.114;2022-09-21T15:29:40;1.83;;;1.73;;
1306;SDS011;646;48.696;9.114;2022-09-21T15:32:36;1.43;;;1.43;;
1306;SDS011;646;48.696;9.114;2022-09-21T15:35:19;1.40;;;1.30;;
1306;SDS011;646;48.696;9.114;2022-09-21T15:37:47;1.30;;;1.30;;
1306;SDS011;646;48.696;9.114;2022-09-21T15:45:47;1.40;;;1.30;;
1306;SDS011;646;48.696;9.114;2022-09-21T15:48:15;2.03;;;1.40;;
1306;SDS011;646;48.696;9.114;2022-09-21T15:50:41;1.53;;;1.43;;
1306;SDS011;646;48.696;9.114;2022-09-21T15:53:14;1.40;;;1.30;;
1306;SDS011;646;48.696;9.114;2022-09-21T15:55:46;1.47;;;1.37;;
1306;SDS011;646;48.696;9.114;2022-09-21T15:58:19;1.50;;;1.40;;
1306;SDS011;646;48.696;9.114;2022-09-21T16:01:14;1.33;;;1.23;;
1306;SDS011;646;48.696;9.114;2022-09-21T16:03:45;1.33;;;1.23;;
1306;SDS011;646;48.696;9.114;2022-09-21T16:08:46;1.10;;;1.10;;
1306;SDS011;646;48.696;9.114;2022-09-21T16:11:13;1.33;;;1.23;;
1306;SDS011;646;48.696;9.114;2022-09-21T16:13:47;1.70;;;1.60;;
1306;SDS011;646;48.696;9.114;2022-09-21T16:19:43;1.60;;;1.50;;
1306;SDS011;646;48.696;9.114;2022-09-21T16:22:20;1.30;;;1.30;;
1306;SDS011;646;48.696;9.114;2022-09-21T16:24:50;1.40;;;1.40;;
1306;SDS011;646;48.696;9.114;2022-09-21T16:27:19;1.43;;;1.33;;
1306;SDS011;646;48.696;9.114;2022-09-21T16:29:49;1.33;;;1.23;;
1306;SDS011;646;48.696;9.114;2022-09-21T16:34:42;2.20;;;2.10;;
1306;SDS011;646;48.696;9.114;2022-09-21T16:39:52;1.40;;;1.30;;
1306;SDS011;646;48.696;9.114;2022-09-21T16:42:20;3.23;;;3.03;;
1306;SDS011;646;48.696;9.114;2022-09-21T16:44:46;3.40;;;1.73;;
1306;SDS011;646;48.696;9.114;2022-09-21T16:47:13;1.63;;;1.53;;
1306;SDS011;646;48.696;9.114;2022-09-21T16:49:41;1.90;;;1.77;;
1306;SDS011;646;48.696;9.114;2022-09-21T16:52:07;5.10;;;4.30;;
1306;SDS011;646;48.696;9.114;2022-09-21T16:54:33;2.20;;;1.93;;
1306;SDS011;646;48.696;9.114;2022-09-21T16:57:01;2.20;;;2.10;;
1306;SDS011;646;48.696;9.114;2022-09-21T16:59:29;11.47;;;9.10;;
1306;SDS011;646;48.696;9.114;2022-09-21T17:01:56;9.20;;;7.20;;
1306;SDS011;646;48.696;9.114;2022-09-21T17:04:27;4.17;;;3.77;;
1306;SDS011;646;48.696;9.114;2022-09-21T17:06:53;11.33;;;10.27;;
1306;SDS011;646;48.696;9.114;2022-09-21T17:09:32;13.33;;;12.33;;
1306;SDS011;646;48.696;9.114;2022-09-21T17:12:00;6.53;;;6.13;;
1306;SDS011;646;48.696;9.114;2022-09-21T17:14:30;3.00;;;2.90;;
1306;SDS011;646;48.696;9.114;2022-09-21T17:17:02;2.27;;;2.17;;
1306;SDS011;646;48.696;9.114;2022-09-21T17:19:35;2.07;;;1.97;;
1306;SDS011;646;48.696;9.114;2022-09-21T17:22:03;3.40;;;3.20;;
1306;SDS011;646;48.696;9.114;2022-09-21T17:24:30;3.17;;;2.97;;
1306;SDS011;646;48.696;9.114;2022-09-21T17:26:56;2.77;;;2.57;;
1306;SDS011;646;48.696;9.114;2022-09-21T17:29:26;3.07;;;2.87;;
1306;SDS011;646;48.696;9.114;2022-09-21T17:31:53;2.90;;;2.70;;
1306;SDS011;646;48.696;9.114;2022-09-21T17:34:21;2.10;;;2.00;;
1306;SDS011;646;48.696;9.114;2022-09-21T17:36:50;3.30;;;1.90;;
1306;SDS011;646;48.696;9.114;2022-09-21T17:39:17;1.83;;;1.73;;
1306;SDS011;646;48.696;9.114;2022-09-21T17:41:45;3.13;;;2.87;;
1306;SDS011;646;48.696;9.114;2022-09-21T17:46:53;4.90;;;3.20;;
1306;SDS011;646;48.696;9.114;2022-09-21T17:49:22;2.00;;;1.90;;
1306;SDS011;646;48.696;9.114;2022-09-21T17:51:48;2.55;;;2.33;;
1306;SDS011;646;48.696;9.114;2022-09-21T17:54:33;2.57;;;2.40;;
1306;SDS011;646;48.696;9.114;2022-09-21T17:57:07;2.70;;;2.50;;
1306;SDS011;646;48.696;9.114;2022-09-21T17:59:48;3.28;;;3.08;;
1306;SDS011;646;48.696;9.114;2022-09-21T18:02:23;3.47;;;3.28;;
1306;SDS011;646;48.696;9.114;2022-09-21T18:04:50;3.97;;;3.63;;
1306;SDS011;646;48.696;9.114;2022-09-21T18:07:21;3.83;;;3.07;;
1306;SDS011;646;48.696;9.114;2022-09-21T18:09:49;4.22;;;3.92;;
1306;SDS011;646;48.696;9.114;2022-09-21T18:12:51;4.03;;;3.73;;
1306;SDS011;646;48.696;9.114;2022-09-21T18:18:17;3.38;;;3.13;;
1306;SDS011;646;48.696;9.114;2022-09-21T18:20:52;3.83;;;3.53;;
1306;SDS011;646;48.696;9.114;2022-09-21T18:23:42;4.22;;;3.92;;
1306;SDS011;646;48.696;9.114;2022-09-21T18:26:19;5.20;;;4.80;;
1306;SDS011;646;48.696;9.114;2022-09-21T18:28:47;5.68;;;5.22;;
1306;SDS011;646;48.696;9.114;2022-09-21T18:39:43;7.25;;;6.60;;
1306;SDS011;646;48.696;9.114;2022-09-21T18:42:44;7.10;;;6.60;;
1306;SDS011;646;48.696;9.114;2022-09-21T18:45:19;7.70;;;7.20;;
1306;SDS011;646;48.696;9.114;2022-09-21T18:47:56;7.10;;;6.60;;
1306;SDS011;646;48.696;9.114;2022-09-21T18:50:52;7.00;;;6.40;;